createdAt,value
2018-10-21T09:01:53.000Z,15
2018-10-21T09:02:48.000Z,14
2018-10-21T09:03:34.000Z,14
2018-10-21T09:04:33.000Z,14
2018-10-21T09:05:33.000Z,14
2018-10-21T09:06:31.000Z,14
2018-10-21T09:07:32.000Z,14
2018-10-21T09:08:31.000Z,15
2018-10-21T09:09:31.000Z,15
2018-10-21T09:10:31.000Z,14
2018-10-21T09:11:30.000Z,14
2018-10-21T09:12:31.000Z,14
2018-10-21T09:13:30.000Z,14
2018-10-21T09:14:31.000Z,14
2018-10-21T09:15:31.000Z,14
2018-10-21T09:16:31.000Z,14
2018-10-21T09:17:31.000Z,14
2018-10-21T09:18:30.000Z,14
2018-10-21T09:19:30.000Z,14
2018-10-21T09:20:31.000Z,14
2018-10-21T09:21:30.000Z,14
2018-10-21T09:22:30.000Z,15
2018-10-21T09:23:30.000Z,15
2018-10-21T09:24:31.000Z,15
2018-10-21T09:25:31.000Z,15
2018-10-21T09:26:31.000Z,15
2018-10-21T09:27:31.000Z,15
2018-10-21T09:28:30.000Z,15
2018-10-21T09:29:31.000Z,16
2018-10-21T09:30:30.000Z,16
2018-10-21T09:31:30.000Z,17
2018-10-21T09:33:31.000Z,16
2018-10-21T09:34:30.000Z,16
2018-10-21T09:35:31.000Z,16
2018-10-21T09:36:31.000Z,16
2018-10-21T09:37:31.000Z,16
2018-10-21T09:38:30.000Z,16
2018-10-21T09:39:31.000Z,16
2018-10-21T09:40:31.000Z,16
2018-10-21T09:41:30.000Z,16
2018-10-21T09:42:30.000Z,16
2018-10-21T09:43:30.000Z,16
2018-10-21T09:44:31.000Z,16
2018-10-21T09:45:30.000Z,16
2018-10-21T09:46:31.000Z,17
2018-10-21T09:47:30.000Z,18
2018-10-21T09:48:31.000Z,17
2018-10-21T09:49:30.000Z,17
2018-10-21T09:50:31.000Z,17
2018-10-21T09:51:30.000Z,17
2018-10-21T09:52:31.000Z,17
2018-10-21T09:53:31.000Z,17
2018-10-21T09:54:30.000Z,17
2018-10-21T09:55:31.000Z,16
2018-10-21T09:56:32.000Z,17
2018-10-21T09:57:30.000Z,17
2018-10-21T09:58:31.000Z,17
2018-10-21T09:59:31.000Z,17
2018-10-21T10:00:30.000Z,17
2018-10-21T10:01:31.000Z,17
2018-10-21T10:02:31.000Z,18
2018-10-21T10:03:31.000Z,18
2018-10-21T10:04:31.000Z,18
2018-10-21T10:05:30.000Z,17
2018-10-21T10:06:30.000Z,17
2018-10-21T10:07:31.000Z,18
2018-10-21T10:08:30.000Z,18
2018-10-21T10:09:31.000Z,18
2018-10-21T10:10:30.000Z,18
2018-10-21T10:11:30.000Z,18
2018-10-21T10:12:31.000Z,18
2018-10-21T10:13:31.000Z,18
2018-10-21T10:14:31.000Z,19
2018-10-21T10:15:31.000Z,19
2018-10-21T10:16:30.000Z,19
2018-10-21T10:17:31.000Z,19
2018-10-21T10:18:31.000Z,20
2018-10-21T10:19:31.000Z,20
2018-10-21T10:20:31.000Z,20
2018-10-21T10:21:31.000Z,20
2018-10-21T10:22:31.000Z,20
2018-10-21T10:23:30.000Z,20
2018-10-21T10:24:30.000Z,20
2018-10-21T10:25:31.000Z,21
2018-10-21T10:26:31.000Z,21
2018-10-21T10:27:30.000Z,21
2018-10-21T10:28:30.000Z,20
2018-10-21T10:29:31.000Z,20
2018-10-21T10:30:30.000Z,20
2018-10-21T10:31:30.000Z,20
2018-10-21T10:32:30.000Z,20
2018-10-21T10:33:30.000Z,20
2018-10-21T10:34:30.000Z,21
2018-10-21T10:35:31.000Z,21
2018-10-21T10:36:30.000Z,20
2018-10-21T10:37:30.000Z,21
2018-10-21T10:38:30.000Z,21
2018-10-21T10:39:32.000Z,21
2018-10-21T10:40:31.000Z,21
2018-10-21T10:41:31.000Z,21
2018-10-21T10:42:30.000Z,21
2018-10-21T10:43:30.000Z,21
2018-10-21T10:44:31.000Z,21
2018-10-21T10:45:31.000Z,20
2018-10-21T10:46:30.000Z,20
2018-10-21T10:47:31.000Z,20
2018-10-21T10:48:30.000Z,19
2018-10-21T10:49:30.000Z,19
2018-10-21T10:50:31.000Z,19
2018-10-21T10:51:31.000Z,19
2018-10-21T10:52:31.000Z,19
2018-10-21T10:53:30.000Z,19
2018-10-21T10:54:30.000Z,19
2018-10-21T10:55:31.000Z,19
2018-10-21T10:56:31.000Z,19
2018-10-21T10:57:31.000Z,19
2018-10-21T10:58:31.000Z,19
2018-10-21T10:59:30.000Z,19
2018-10-21T11:00:30.000Z,18
2018-10-21T11:01:31.000Z,18
2018-10-21T11:02:31.000Z,18
2018-10-21T11:03:31.000Z,18
2018-10-21T11:04:30.000Z,18
2018-10-21T11:05:31.000Z,18
2018-10-21T11:06:31.000Z,18
2018-10-21T11:07:30.000Z,18
2018-10-21T11:08:31.000Z,18
2018-10-21T11:09:32.000Z,18
2018-10-21T11:10:31.000Z,18
2018-10-21T11:11:30.000Z,18
2018-10-21T11:12:30.000Z,18
2018-10-21T11:13:30.000Z,18
2018-10-21T11:14:30.000Z,18
2018-10-21T11:15:31.000Z,18
2018-10-21T11:16:30.000Z,18
2018-10-21T11:17:31.000Z,18
2018-10-21T11:18:30.000Z,18
2018-10-21T11:19:31.000Z,19
2018-10-21T11:20:31.000Z,19
2018-10-21T11:21:30.000Z,19
2018-10-21T11:22:31.000Z,19
2018-10-21T11:23:31.000Z,19
2018-10-21T11:24:31.000Z,19
2018-10-21T11:25:30.000Z,19
2018-10-21T11:26:31.000Z,19
2018-10-21T11:27:30.000Z,19
2018-10-21T11:28:31.000Z,20
2018-10-21T11:29:31.000Z,21
2018-10-21T11:30:30.000Z,21
2018-10-21T11:31:31.000Z,21
2018-10-21T11:32:31.000Z,21
2018-10-21T11:33:31.000Z,22
2018-10-21T11:34:31.000Z,22
2018-10-21T11:35:31.000Z,21
2018-10-21T11:36:31.000Z,21
2018-10-21T11:37:30.000Z,21
2018-10-21T11:38:31.000Z,21
2018-10-21T11:39:32.000Z,21
2018-10-21T11:40:30.000Z,21
2018-10-21T11:41:31.000Z,21
2018-10-21T11:42:31.000Z,21
2018-10-21T11:43:31.000Z,21
2018-10-21T11:44:30.000Z,21
2018-10-21T11:45:30.000Z,21
2018-10-21T11:46:31.000Z,21
2018-10-21T11:47:30.000Z,21
2018-10-21T11:48:31.000Z,20
2018-10-21T11:49:31.000Z,20
2018-10-21T11:50:30.000Z,20
2018-10-21T11:51:30.000Z,20
2018-10-21T11:52:30.000Z,20
2018-10-21T11:53:30.000Z,20
2018-10-21T11:54:31.000Z,20
2018-10-21T11:55:30.000Z,20
2018-10-21T11:56:31.000Z,20
2018-10-21T11:57:31.000Z,20
2018-10-21T11:58:31.000Z,20
2018-10-21T11:59:31.000Z,19
2018-10-21T12:00:30.000Z,19
2018-10-21T12:01:31.000Z,19
2018-10-21T12:02:30.000Z,20
2018-10-21T12:03:31.000Z,20
2018-10-21T12:04:31.000Z,20
2018-10-21T12:05:30.000Z,19
2018-10-21T12:06:31.000Z,20
2018-10-21T12:07:31.000Z,20
2018-10-21T12:08:31.000Z,21
2018-10-21T12:09:32.000Z,20
2018-10-21T12:10:31.000Z,20
2018-10-21T12:11:31.000Z,20
2018-10-21T12:12:31.000Z,21
2018-10-21T12:13:31.000Z,19
2018-10-21T12:14:30.000Z,19
2018-10-21T12:15:30.000Z,19
2018-10-21T12:16:30.000Z,18
2018-10-21T12:17:31.000Z,18
2018-10-21T12:18:30.000Z,18
2018-10-21T14:03:31.000Z,18
2018-10-21T14:04:31.000Z,18
2018-10-21T14:05:31.000Z,18
2018-10-21T14:06:32.000Z,18
2018-10-21T14:07:30.000Z,18
2018-10-21T14:08:31.000Z,19
2018-10-21T14:09:31.000Z,21
2018-10-21T14:10:31.000Z,22
2018-10-21T14:11:30.000Z,22
2018-10-21T14:12:30.000Z,23
2018-10-21T14:13:31.000Z,23
2018-10-21T14:14:30.000Z,23
2018-10-21T14:15:29.000Z,24
2018-10-21T14:16:30.000Z,24
2018-10-21T14:17:31.000Z,24
2018-10-21T14:18:31.000Z,24
2018-10-21T14:19:30.000Z,24
2018-10-21T14:20:29.000Z,24
2018-10-21T14:21:31.000Z,24
2018-10-21T14:22:30.000Z,24
2018-10-21T14:23:31.000Z,25
2018-10-21T14:24:30.000Z,25
2018-10-21T14:25:30.000Z,25
2018-10-21T14:26:31.000Z,25
2018-10-21T14:27:31.000Z,25
2018-10-21T14:28:31.000Z,25
2018-10-21T14:29:31.000Z,25
2018-10-21T14:30:31.000Z,25
2018-10-21T15:29:31.000Z,25
2018-10-21T15:30:31.000Z,23
2018-10-21T15:31:30.000Z,21
2018-10-21T15:32:30.000Z,20
2018-10-21T15:33:31.000Z,19
2018-10-21T15:34:31.000Z,18
2018-10-21T15:35:31.000Z,18
2018-10-21T15:36:30.000Z,18
2018-10-21T15:37:30.000Z,17
2018-10-21T15:38:31.000Z,17
2018-10-21T15:39:32.000Z,17
2018-10-21T15:40:31.000Z,17
2018-10-21T15:41:31.000Z,17
2018-10-21T15:42:31.000Z,16
2018-10-21T15:43:30.000Z,16
2018-10-21T15:44:31.000Z,16
2018-10-21T15:45:30.000Z,16
2018-10-21T15:46:30.000Z,16
2018-10-21T15:47:30.000Z,16
2018-10-21T15:48:32.000Z,16
2018-10-21T15:49:31.000Z,16
2018-10-21T15:50:30.000Z,16
2018-10-21T15:51:30.000Z,16
2018-10-21T15:52:31.000Z,16
2018-10-21T15:53:31.000Z,16
2018-10-21T15:54:31.000Z,16
2018-10-21T15:55:30.000Z,15
2018-10-21T15:56:31.000Z,15
2018-10-21T15:57:31.000Z,15
2018-10-21T15:58:30.000Z,15
2018-10-21T15:59:31.000Z,16
2018-10-21T16:00:31.000Z,15
2018-10-21T16:01:30.000Z,15
2018-10-21T16:02:31.000Z,15
2018-10-21T16:03:31.000Z,15
2018-10-21T16:04:31.000Z,15
2018-10-21T16:05:31.000Z,15
2018-10-21T16:06:30.000Z,15
2018-10-21T16:07:30.000Z,15
2018-10-21T16:08:30.000Z,14
2018-10-21T16:09:31.000Z,14
2018-10-21T16:10:30.000Z,14
2018-10-21T16:11:31.000Z,14
2018-10-21T16:12:30.000Z,14
2018-10-21T16:13:30.000Z,14
2018-10-21T16:14:31.000Z,14
2018-10-21T16:15:30.000Z,14
2018-10-21T16:16:31.000Z,14
2018-10-21T16:17:31.000Z,14
2018-10-21T16:18:31.000Z,14
2018-10-21T16:19:30.000Z,14
2018-10-21T16:20:30.000Z,14
2018-10-21T16:21:30.000Z,14
2018-10-21T16:22:30.000Z,14
2018-10-21T16:23:31.000Z,14
2018-10-21T16:24:31.000Z,13
2018-10-21T16:25:30.000Z,13
2018-10-21T16:26:31.000Z,13
2018-10-21T16:27:31.000Z,13
2018-10-21T16:28:31.000Z,13
2018-10-21T16:29:31.000Z,13
2018-10-21T16:30:31.000Z,13
2018-10-21T16:31:31.000Z,13
2018-10-21T16:32:31.000Z,13
2018-10-21T16:33:30.000Z,13
2018-10-21T16:34:30.000Z,13
2018-10-21T16:35:31.000Z,13
2018-10-21T16:36:31.000Z,13
2018-10-21T16:37:31.000Z,13
2018-10-21T16:38:30.000Z,13
2018-10-21T16:39:32.000Z,13
2018-10-21T16:40:31.000Z,13
2018-10-21T16:41:31.000Z,13
2018-10-21T16:42:30.000Z,13
2018-10-21T16:43:30.000Z,12
2018-10-21T16:44:32.000Z,12
2018-10-21T16:45:30.000Z,12
2018-10-21T16:46:47.000Z,12
2018-10-21T16:47:36.000Z,12
2018-10-21T16:48:31.000Z,12
2018-10-21T16:49:31.000Z,13
2018-10-21T16:50:30.000Z,13
2018-10-21T16:51:31.000Z,13
2018-10-21T16:52:31.000Z,13
2018-10-21T16:53:30.000Z,13
2018-10-21T16:54:31.000Z,13
2018-10-21T16:55:30.000Z,13
2018-10-21T16:56:31.000Z,13
2018-10-21T16:57:30.000Z,13
2018-10-21T16:58:31.000Z,12
2018-10-21T16:59:30.000Z,13
2018-10-21T17:00:31.000Z,12
2018-10-21T17:01:31.000Z,12
2018-10-21T17:02:30.000Z,12
2018-10-21T17:03:31.000Z,12
2018-10-21T17:04:30.000Z,12
2018-10-21T17:05:30.000Z,12
2018-10-21T17:06:30.000Z,12
2018-10-21T17:07:30.000Z,12
2018-10-21T17:08:31.000Z,12
2018-10-21T17:09:32.000Z,12
2018-10-21T17:10:30.000Z,12
2018-10-21T17:11:31.000Z,12
2018-10-21T17:12:31.000Z,12
2018-10-21T17:13:30.000Z,12
2018-10-21T17:14:31.000Z,12
2018-10-21T17:15:30.000Z,12
2018-10-21T17:16:30.000Z,12
2018-10-21T17:17:31.000Z,12
2018-10-21T17:18:30.000Z,12
2018-10-21T17:19:30.000Z,12
2018-10-21T17:20:31.000Z,12
2018-10-21T17:21:31.000Z,12
2018-10-21T17:22:31.000Z,12
2018-10-21T17:23:31.000Z,12
2018-10-21T17:24:31.000Z,12
2018-10-21T17:25:31.000Z,11
2018-10-21T17:26:31.000Z,11
2018-10-21T17:27:30.000Z,11
2018-10-21T17:28:30.000Z,11
2018-10-21T17:29:31.000Z,11
2018-10-21T17:30:30.000Z,11
2018-10-21T17:31:31.000Z,11
2018-10-21T17:32:31.000Z,11
2018-10-21T17:33:31.000Z,11
2018-10-21T17:34:30.000Z,11
2018-10-21T17:35:31.000Z,11
2018-10-21T17:36:31.000Z,11
2018-10-21T17:37:31.000Z,12
2018-10-21T17:38:30.000Z,12
2018-10-21T17:39:31.000Z,12
2018-10-21T17:40:31.000Z,12
2018-10-21T17:41:31.000Z,11
2018-10-21T17:42:30.000Z,11
2018-10-21T17:43:31.000Z,11
2018-10-21T17:44:31.000Z,11
2018-10-21T17:45:30.000Z,11
2018-10-21T17:46:31.000Z,11
2018-10-21T17:47:31.000Z,11
2018-10-21T17:48:30.000Z,11
2018-10-21T17:49:30.000Z,11
2018-10-21T17:50:31.000Z,11
2018-10-21T17:51:31.000Z,11
2018-10-21T17:52:30.000Z,11
2018-10-21T17:53:31.000Z,11
2018-10-21T17:54:31.000Z,11
2018-10-21T17:55:30.000Z,11
2018-10-21T17:56:30.000Z,11
2018-10-21T17:57:31.000Z,11
2018-10-21T17:58:31.000Z,11
2018-10-21T17:59:30.000Z,11
2018-10-21T18:00:30.000Z,11
2018-10-21T18:01:30.000Z,11
2018-10-21T18:02:30.000Z,11
2018-10-21T18:03:30.000Z,11
2018-10-21T18:04:31.000Z,11
2018-10-21T18:05:30.000Z,11
2018-10-21T18:06:30.000Z,11
2018-10-21T18:07:31.000Z,11
2018-10-21T18:08:31.000Z,11
2018-10-21T18:09:32.000Z,11
2018-10-21T18:10:31.000Z,11
2018-10-21T18:11:31.000Z,11
2018-10-21T18:12:31.000Z,11
2018-10-21T18:13:31.000Z,11
2018-10-21T18:14:31.000Z,11
2018-10-21T18:15:31.000Z,11
2018-10-21T18:16:31.000Z,11
2018-10-21T18:17:31.000Z,11
2018-10-21T18:18:31.000Z,11
2018-10-21T18:19:31.000Z,11
2018-10-21T18:20:31.000Z,11
2018-10-21T18:21:31.000Z,11
2018-10-21T18:22:31.000Z,11
2018-10-21T18:23:31.000Z,11
